createdAt,value
2023-03-20T00:00:40.489Z,10.79
2023-03-20T00:03:43.311Z,10.75
2023-03-20T00:06:46.005Z,10.75
2023-03-20T00:09:49.387Z,10.74
2023-03-20T00:12:52.170Z,10.75
2023-03-20T00:15:56.402Z,10.77
2023-03-20T00:18:59.483Z,10.81
2023-03-20T00:22:02.389Z,10.80
2023-03-20T00:25:05.771Z,10.78
2023-03-20T00:28:32.533Z,10.77
2023-03-20T00:31:38.136Z,10.81
2023-03-20T00:34:40.988Z,10.74
2023-03-20T00:37:43.716Z,10.68
2023-03-20T00:40:46.504Z,10.67
2023-03-20T00:43:52.683Z,10.72
2023-03-20T00:46:59.202Z,10.70
2023-03-20T00:50:03.011Z,10.76
2023-03-20T00:53:06.047Z,10.80
2023-03-20T00:56:29.809Z,10.72
2023-03-20T00:59:37.141Z,10.71
2023-03-20T01:02:41.237Z,10.71
2023-03-20T01:05:44.926Z,10.78
2023-03-20T01:08:48.807Z,10.82
2023-03-20T01:11:53.988Z,10.74
2023-03-20T01:14:58.666Z,10.72
2023-03-20T01:18:02.667Z,10.62
2023-03-20T01:21:05.846Z,10.49
2023-03-20T01:24:09.150Z,10.40
2023-03-20T01:27:15.481Z,10.40
2023-03-20T01:30:22.025Z,10.49
2023-03-20T01:33:26.613Z,10.52
2023-03-20T01:36:29.466Z,10.51
2023-03-20T01:39:35.032Z,10.53
2023-03-20T01:42:38.315Z,10.56
2023-03-20T01:45:48.302Z,10.56
2023-03-20T01:49:05.609Z,10.56
2023-03-20T01:52:08.442Z,10.60
2023-03-20T01:55:11.336Z,10.50
2023-03-20T01:58:18.595Z,10.53
2023-03-20T02:01:21.583Z,10.60
2023-03-20T02:04:30.223Z,10.63
2023-03-20T02:07:34.783Z,10.59
2023-03-20T02:10:37.822Z,10.53
2023-03-20T02:13:41.459Z,10.52
2023-03-20T02:16:44.333Z,10.47
2023-03-20T02:19:59.429Z,10.42
2023-03-20T02:23:25.572Z,10.48
2023-03-20T02:26:44.173Z,10.47
2023-03-20T02:30:14.760Z,10.48
2023-03-20T02:33:51.102Z,10.46
2023-03-20T02:37:32.978Z,10.44
2023-03-20T02:40:46.011Z,10.40
2023-03-20T02:43:57.100Z,10.46
2023-03-20T02:47:05.022Z,10.53
2023-03-20T02:50:17.398Z,10.53
2023-03-20T02:53:32.567Z,10.55
2023-03-20T02:56:43.425Z,10.51
2023-03-20T02:59:54.108Z,10.45
2023-03-20T03:03:06.453Z,10.45
2023-03-20T03:06:15.932Z,10.43
2023-03-20T03:09:23.054Z,10.39
2023-03-20T03:12:32.824Z,10.35
2023-03-20T03:15:40.033Z,10.33
2023-03-20T03:18:44.615Z,10.32
2023-03-20T03:21:48.834Z,10.32
2023-03-20T03:24:53.272Z,10.34
2023-03-20T03:28:04.377Z,10.31
2023-03-20T03:31:09.689Z,10.30
2023-03-20T03:34:16.426Z,10.29
2023-03-20T03:37:27.767Z,10.29
2023-03-20T03:40:37.178Z,10.37
2023-03-20T03:43:48.844Z,10.44
2023-03-20T03:46:55.312Z,10.40
2023-03-20T03:50:03.157Z,10.37
2023-03-20T03:53:11.450Z,10.36
2023-03-20T03:56:17.322Z,10.35
2023-03-20T03:59:27.234Z,10.44
2023-03-20T04:02:30.773Z,10.46
2023-03-20T04:05:37.547Z,10.39
2023-03-20T04:08:41.481Z,10.36
2023-03-20T04:11:48.731Z,10.30
2023-03-20T04:14:52.735Z,10.32
2023-03-20T04:17:56.018Z,10.34
2023-03-20T04:20:58.852Z,10.31
2023-03-20T04:24:04.292Z,10.29
2023-03-20T04:27:07.022Z,10.28
2023-03-20T04:30:13.096Z,10.18
2023-03-20T04:33:16.403Z,10.11
2023-03-20T04:36:19.386Z,10.10
2023-03-20T04:39:22.405Z,10.17
2023-03-20T04:42:25.266Z,10.21
2023-03-20T04:45:29.329Z,10.26
2023-03-20T04:48:32.147Z,10.24
2023-03-20T04:51:34.965Z,10.23
2023-03-20T04:54:37.735Z,10.25
2023-03-20T04:57:40.955Z,10.22
2023-03-20T05:00:45.318Z,10.18
2023-03-20T05:03:48.015Z,10.19
2023-03-20T05:06:50.803Z,10.15
2023-03-20T05:09:53.781Z,10.08
2023-03-20T05:12:56.478Z,10.11
2023-03-20T05:16:01.188Z,10.10
2023-03-20T05:19:03.904Z,10.07
2023-03-20T05:22:08.931Z,10.01
2023-03-20T05:25:11.724Z,10.05
2023-03-20T05:28:14.510Z,9.99
2023-03-20T05:31:18.684Z,9.99
2023-03-20T05:34:21.564Z,10.14
2023-03-20T05:37:24.289Z,10.12
2023-03-20T05:40:26.998Z,10.17
2023-03-20T05:43:29.982Z,10.15
2023-03-20T05:46:34.090Z,10.23
2023-03-20T05:49:36.994Z,10.20
2023-03-20T05:52:39.739Z,10.22
2023-03-20T05:55:44.667Z,10.18
2023-03-20T05:58:47.505Z,10.29
2023-03-20T06:01:51.635Z,10.23
2023-03-20T06:04:54.465Z,10.23
2023-03-20T06:07:57.297Z,10.24
2023-03-20T06:10:59.966Z,10.25
2023-03-20T06:14:03.101Z,10.28
2023-03-20T06:17:07.322Z,10.29
2023-03-20T06:20:11.457Z,10.31
2023-03-20T06:23:14.216Z,10.33
2023-03-20T06:26:17.120Z,10.33
2023-03-20T06:29:19.992Z,10.36
2023-03-20T06:32:24.290Z,10.39
2023-03-20T06:35:31.145Z,10.51
2023-03-20T06:38:34.293Z,10.55
2023-03-20T06:41:37.155Z,10.59
2023-03-20T06:44:40.311Z,10.65
2023-03-20T06:47:44.320Z,10.71
2023-03-20T06:50:47.454Z,10.80
2023-03-20T06:53:50.245Z,10.89
2023-03-20T06:56:53.390Z,11.00
2023-03-20T06:59:56.212Z,11.10
2023-03-20T07:03:02.201Z,11.15
2023-03-20T07:06:05.556Z,11.31
2023-03-20T07:09:08.251Z,11.45
2023-03-20T07:12:14.486Z,11.59
2023-03-20T07:15:17.500Z,11.75
2023-03-20T07:18:22.321Z,11.76
2023-03-20T07:21:25.263Z,11.96
2023-03-20T07:24:28.130Z,11.84
2023-03-20T07:27:31.128Z,11.71
2023-03-20T07:30:34.149Z,11.63
2023-03-20T07:33:38.215Z,11.62
2023-03-20T07:36:41.902Z,11.63
2023-03-20T07:39:44.676Z,11.67
2023-03-20T07:42:47.656Z,11.73
2023-03-20T07:45:50.620Z,11.81
2023-03-20T07:48:56.631Z,11.85
2023-03-20T07:51:59.541Z,11.88
2023-03-20T07:55:02.506Z,11.92
2023-03-20T07:58:05.536Z,11.99
2023-03-20T08:01:08.329Z,12.13
2023-03-20T08:04:12.601Z,12.23
2023-03-20T08:07:15.579Z,12.32
2023-03-20T08:10:18.653Z,12.38
2023-03-20T08:13:21.442Z,12.41
2023-03-20T08:16:24.421Z,12.34
2023-03-20T08:19:28.836Z,12.28
2023-03-20T08:22:31.645Z,12.24
2023-03-20T08:25:35.146Z,12.27
2023-03-20T08:28:47.466Z,12.23
2023-03-20T08:31:50.871Z,12.34
2023-03-20T08:34:55.756Z,12.45
2023-03-20T08:37:58.603Z,12.47
2023-03-20T08:41:01.304Z,12.56
2023-03-20T08:44:04.094Z,12.75
2023-03-20T08:47:07.667Z,12.84
2023-03-20T08:50:12.995Z,12.93
2023-03-20T08:53:16.956Z,13.01
2023-03-20T08:56:19.873Z,13.12
2023-03-20T08:59:22.961Z,13.22
2023-03-20T09:02:25.788Z,13.34
2023-03-20T09:05:30.747Z,13.61
2023-03-20T09:08:34.610Z,13.58
2023-03-20T09:11:38.196Z,13.59
2023-03-20T09:14:41.854Z,13.70
2023-03-20T09:17:44.568Z,13.80
2023-03-20T09:20:49.359Z,13.96
2023-03-20T09:23:52.244Z,14.01
2023-03-20T09:26:54.997Z,14.04
2023-03-20T09:29:58.093Z,14.09
2023-03-20T09:33:00.860Z,14.11
2023-03-20T09:36:05.540Z,14.24
2023-03-20T09:39:08.729Z,14.37
2023-03-20T09:42:22.481Z,14.46
2023-03-20T09:45:35.639Z,14.58
2023-03-20T09:48:46.375Z,14.63
2023-03-20T09:51:54.539Z,14.72
2023-03-20T09:55:02.042Z,14.79
2023-03-20T09:58:11.798Z,14.79
2023-03-20T10:01:16.743Z,14.67
2023-03-20T10:04:19.958Z,14.64
2023-03-20T10:07:25.983Z,14.45
2023-03-20T10:10:35.376Z,14.28
2023-03-20T10:13:55.473Z,14.13
2023-03-20T10:17:15.420Z,13.91
2023-03-20T10:20:26.775Z,13.80
2023-03-20T10:23:37.278Z,13.67
2023-03-20T10:26:40.932Z,13.56
2023-03-20T10:29:52.654Z,13.46
2023-03-20T10:33:07.663Z,13.37
2023-03-20T10:36:24.534Z,13.32
2023-03-20T10:39:39.793Z,13.28
2023-03-20T10:42:45.737Z,13.32
2023-03-20T10:45:51.762Z,13.44
2023-03-20T10:49:01.229Z,13.47
2023-03-20T10:52:08.331Z,13.63
2023-03-20T10:55:17.360Z,13.67
2023-03-20T10:58:23.600Z,13.81
2023-03-20T11:01:26.594Z,14.01
2023-03-20T11:04:29.344Z,14.05
2023-03-20T11:07:35.072Z,14.00
2023-03-20T11:10:40.806Z,14.03
2023-03-20T11:13:45.364Z,14.06
2023-03-20T11:16:53.256Z,14.07
2023-03-20T11:20:04.008Z,14.06
2023-03-20T11:23:08.918Z,13.97
2023-03-20T11:26:16.914Z,13.87
2023-03-20T11:29:27.900Z,13.80
2023-03-20T11:32:32.882Z,13.84
2023-03-20T11:35:36.115Z,13.83
2023-03-20T11:38:45.801Z,13.75
2023-03-20T11:41:53.096Z,13.77
2023-03-20T11:45:01.646Z,13.75
2023-03-20T11:48:05.997Z,13.77
2023-03-20T11:51:11.164Z,13.83
2023-03-20T11:54:18.031Z,13.95
2023-03-20T11:57:33.054Z,14.06
2023-03-20T12:00:39.787Z,14.24
2023-03-20T12:03:46.710Z,14.38
2023-03-20T12:06:54.626Z,14.54
2023-03-20T12:09:59.638Z,14.63
2023-03-20T12:13:10.794Z,14.69
2023-03-20T12:16:16.761Z,14.58
2023-03-20T12:19:24.286Z,14.58
2023-03-20T12:22:29.686Z,14.57
2023-03-20T12:25:38.417Z,14.45
2023-03-20T12:28:51.336Z,14.41
2023-03-20T12:31:59.333Z,14.44
2023-03-20T12:35:07.785Z,14.61
2023-03-20T12:38:24.341Z,14.61
2023-03-20T12:41:31.120Z,14.61
2023-03-20T12:44:41.924Z,14.47
2023-03-20T12:48:16.877Z,14.36
2023-03-20T12:51:28.923Z,14.25
2023-03-20T12:54:50.230Z,14.22
2023-03-20T12:58:05.398Z,14.29
2023-03-20T13:01:14.139Z,14.37
2023-03-20T13:04:42.219Z,14.64
2023-03-20T13:08:03.476Z,15.20
2023-03-20T13:11:14.861Z,15.41
2023-03-20T13:14:25.650Z,15.25
2023-03-20T13:17:36.586Z,15.15
2023-03-20T13:20:51.345Z,15.18
2023-03-20T13:24:06.116Z,15.18
2023-03-20T13:27:23.124Z,15.13
2023-03-20T13:30:31.186Z,15.18
2023-03-20T13:33:47.682Z,15.23
2023-03-20T13:37:16.129Z,15.55
2023-03-20T13:40:28.584Z,15.88
2023-03-20T13:43:36.145Z,15.88
2023-03-20T13:46:42.580Z,15.97
2023-03-20T13:49:53.661Z,15.95
2023-03-20T13:53:02.748Z,15.67
2023-03-20T13:56:13.453Z,15.44
2023-03-20T13:59:35.630Z,15.29
2023-03-20T14:02:53.023Z,15.20
2023-03-20T14:05:57.412Z,15.19
2023-03-20T14:09:00.971Z,15.16
2023-03-20T14:12:07.514Z,15.17
2023-03-20T14:15:13.395Z,15.13
2023-03-20T14:18:18.597Z,15.07
2023-03-20T14:21:25.433Z,15.08
2023-03-20T14:24:29.191Z,15.01
2023-03-20T14:27:44.578Z,15.07
2023-03-20T14:30:49.032Z,15.27
2023-03-20T14:34:00.493Z,15.36
2023-03-20T14:37:06.490Z,15.38
2023-03-20T14:40:17.861Z,15.36
2023-03-20T14:43:39.289Z,15.29
2023-03-20T14:46:52.573Z,15.35
2023-03-20T14:50:03.582Z,15.32
2023-03-20T14:53:17.182Z,15.19
2023-03-20T14:56:28.941Z,15.11
2023-03-20T14:59:33.512Z,15.07
2023-03-20T15:02:37.376Z,15.02
2023-03-20T15:05:41.160Z,14.89
2023-03-20T15:08:48.303Z,14.84
2023-03-20T15:11:52.624Z,14.84
2023-03-20T15:14:59.155Z,14.88
2023-03-20T15:18:08.499Z,14.72
2023-03-20T15:21:15.953Z,14.66
2023-03-20T15:24:23.334Z,14.69
2023-03-20T15:27:29.623Z,14.77
2023-03-20T15:30:34.969Z,14.68
2023-03-20T15:33:42.753Z,14.54
2023-03-20T15:36:45.533Z,14.41
2023-03-20T15:39:51.967Z,14.46
2023-03-20T15:42:55.392Z,14.34
2023-03-20T15:46:18.422Z,14.21
2023-03-20T15:49:23.235Z,14.27
2023-03-20T15:52:32.220Z,14.21
2023-03-20T15:55:36.570Z,14.21
2023-03-20T15:58:39.919Z,14.25
2023-03-20T16:01:42.969Z,14.25
2023-03-20T16:04:49.007Z,14.20
2023-03-20T16:07:51.621Z,14.20
2023-03-20T16:10:59.407Z,14.07
2023-03-20T16:14:02.414Z,14.12
2023-03-20T16:17:06.166Z,14.15
2023-03-20T16:20:14.400Z,14.11
2023-03-20T16:23:28.298Z,14.12
2023-03-20T16:26:32.495Z,14.16
2023-03-20T16:29:36.114Z,14.04
2023-03-20T16:32:40.372Z,13.97
2023-03-20T16:35:45.999Z,13.96
2023-03-20T16:38:57.442Z,13.84
2023-03-20T16:42:12.397Z,13.83
2023-03-20T16:45:25.083Z,13.81
2023-03-20T16:48:32.426Z,13.71
2023-03-20T16:51:35.184Z,13.57
2023-03-20T16:54:38.049Z,13.44
2023-03-20T16:57:43.128Z,13.38
2023-03-20T17:00:51.652Z,13.32
2023-03-20T17:03:56.724Z,13.28
2023-03-20T17:07:01.578Z,13.23
2023-03-20T17:10:18.439Z,13.16
2023-03-20T17:13:22.440Z,13.12
2023-03-20T17:16:26.059Z,13.02
2023-03-20T17:19:28.694Z,12.97
2023-03-20T17:22:33.435Z,12.96
2023-03-20T17:25:36.085Z,12.95
2023-03-20T17:28:41.701Z,12.91
2023-03-20T17:31:44.359Z,12.84
2023-03-20T17:34:47.735Z,12.81
2023-03-20T17:37:50.468Z,12.76
2023-03-20T17:40:53.677Z,12.76
2023-03-20T17:43:58.038Z,12.78
2023-03-20T17:47:02.302Z,12.76
2023-03-20T17:50:05.761Z,12.77
2023-03-20T17:53:13.459Z,12.74
2023-03-20T17:56:17.275Z,12.70
2023-03-20T17:59:21.220Z,12.62
2023-03-20T18:02:24.056Z,12.56
2023-03-20T18:05:28.600Z,12.58
2023-03-20T18:08:31.590Z,12.58
2023-03-20T18:11:34.508Z,12.53
2023-03-20T18:14:39.304Z,12.55
2023-03-20T18:17:41.913Z,12.49
2023-03-20T18:20:45.532Z,12.46
2023-03-20T18:23:48.169Z,12.40
2023-03-20T18:26:51.152Z,12.39
2023-03-20T18:29:55.206Z,12.37
2023-03-20T18:32:57.883Z,12.32
2023-03-20T18:36:00.755Z,12.26
2023-03-20T18:39:04.856Z,12.28
2023-03-20T18:42:07.944Z,12.28
2023-03-20T18:45:12.976Z,12.21
2023-03-20T18:48:16.058Z,12.24
2023-03-20T18:51:20.308Z,12.25
2023-03-20T18:54:22.979Z,12.23
2023-03-20T18:57:26.083Z,12.27
2023-03-20T19:00:33.799Z,12.28
2023-03-20T19:03:39.289Z,12.23
2023-03-20T19:06:41.950Z,12.20
2023-03-20T19:09:44.689Z,12.19
2023-03-20T19:12:47.374Z,12.15
2023-03-20T19:15:51.619Z,12.19
2023-03-20T19:18:55.817Z,12.16
2023-03-20T19:21:58.453Z,12.10
2023-03-20T19:25:01.048Z,12.11
2023-03-20T19:28:05.269Z,12.15
2023-03-20T19:31:10.771Z,12.14
2023-03-20T19:34:44.384Z,12.18
2023-03-20T19:37:36.027Z,12.19
2023-03-20T19:40:42.972Z,12.21
2023-03-20T19:43:52.481Z,12.23
2023-03-20T19:46:57.730Z,12.17
2023-03-20T19:50:00.348Z,12.19
2023-03-20T19:53:05.812Z,12.20
2023-03-20T19:56:08.768Z,12.18
2023-03-20T19:59:12.622Z,12.15
2023-03-20T20:02:18.287Z,12.15
2023-03-20T20:05:26.239Z,12.21
2023-03-20T20:08:44.831Z,12.17
2023-03-20T20:11:50.361Z,12.16
2023-03-20T20:14:53.048Z,12.13
2023-03-20T20:17:57.030Z,12.15
2023-03-20T20:22:00.015Z,12.04
2023-03-20T20:24:22.636Z,11.98
2023-03-20T20:27:25.439Z,11.96
2023-03-20T20:30:28.035Z,11.91
2023-03-20T20:33:34.405Z,11.91
2023-03-20T20:40:00.282Z,11.89
2023-03-20T20:43:09.721Z,11.85
2023-03-20T20:46:13.227Z,11.82
2023-03-20T20:49:19.871Z,11.86
2023-03-20T20:52:23.042Z,11.86
2023-03-20T20:55:26.185Z,11.83
2023-03-20T20:58:28.837Z,11.82
2023-03-20T21:01:31.573Z,11.76
2023-03-20T21:04:35.694Z,11.69
2023-03-20T21:07:38.604Z,11.65
2023-03-20T21:10:41.280Z,11.64
2023-03-20T21:13:43.926Z,11.60
2023-03-20T21:16:46.619Z,11.66
2023-03-20T21:19:51.056Z,11.74
2023-03-20T21:22:53.733Z,11.77
2023-03-20T21:25:56.343Z,11.81
2023-03-20T21:28:58.989Z,11.77
2023-03-20T21:32:01.659Z,11.78
2023-03-20T21:35:09.220Z,11.75
2023-03-20T21:41:34.940Z,11.71
2023-03-20T21:48:39.410Z,11.71
2023-03-20T21:52:30.518Z,11.64
2023-03-20T21:58:48.821Z,11.56
2023-03-20T22:09:20.185Z,11.48
2023-03-20T22:12:30.224Z,11.47
2023-03-20T22:15:46.739Z,11.38
2023-03-20T22:19:45.980Z,11.43
2023-03-20T22:29:32.742Z,11.31
2023-03-20T22:33:03.386Z,11.23
2023-03-20T22:39:40.873Z,11.17
2023-03-20T22:46:03.148Z,11.17
2023-03-20T22:49:08.637Z,11.21
2023-03-20T22:52:24.891Z,11.18
2023-03-20T22:55:32.219Z,11.16
2023-03-20T22:58:36.315Z,11.18
2023-03-20T23:01:39.090Z,11.14
2023-03-20T23:04:42.039Z,11.16
2023-03-20T23:07:44.869Z,11.20
2023-03-20T23:10:49.669Z,11.18
2023-03-20T23:13:54.249Z,11.17
2023-03-20T23:16:57.092Z,11.13
2023-03-20T23:20:10.959Z,11.03
2023-03-20T23:23:14.912Z,11.02
2023-03-20T23:26:20.978Z,11.01
2023-03-20T23:29:25.233Z,11.02
2023-03-20T23:32:28.311Z,11.02
2023-03-20T23:35:31.083Z,11.02
2023-03-20T23:38:34.052Z,11.01
2023-03-20T23:45:13.179Z,10.95
2023-03-20T23:48:22.344Z,10.95
2023-03-20T23:51:25.151Z,10.95
2023-03-20T23:54:27.944Z,11.01
2023-03-20T23:57:30.722Z,10.98
